Time;durP1;ratioP1;P1;durP2;ratioP2;P2;SDS_P1;SDS_P2;PMS_P1;PMS_P2;Temp;Humidity;BMP_temperature;BMP_pressure;BME280_temperature;BME280_humidity;BME280_pressure;Samples;Min_cycle;Max_cycle;Signal;HPM_P1;HPM_P2
2021/12/06 00:01:39;;;;;;;27.63;12.77;;;;;;;2.67;83.39;98573.03;4975370;28;20077;-62
2021/12/06 00:04:12;;;;;;;25.38;12.63;;;;;;;2.62;83.08;98564.56;4975673;28;20056;-62
2021/12/06 00:06:53;;;;;;;30.75;14.30;;;;;;;2.69;83.63;98568.88;4975615;28;20055;-62
2021/12/06 00:09:28;;;;;;;29.35;14.57;;;;;;;2.72;83.22;98575.63;4975506;28;20051;-63
2021/12/06 00:12:02;;;;;;;32.42;13.57;;;;;;;2.70;83.73;98575.59;4975201;28;20133;-63
2021/12/06 00:14:34;;;;;;;30.50;14.70;;;;;;;2.72;83.58;98571.44;4975538;28;20129;-64
2021/12/06 00:17:08;;;;;;;33.33;14.07;;;;;;;2.75;83.39;98562.22;4975460;28;20409;-64
2021/12/06 00:19:38;;;;;;;31.42;15.13;;;;;;;2.72;82.79;98548.75;4975085;28;20054;-64
2021/12/06 00:22:15;;;;;;;33.83;13.85;;;;;;;2.78;83.11;98547.13;4975085;28;20129;-64
2021/12/06 00:25:14;;;;;;;31.20;13.57;;;;;;;2.65;83.78;98549.50;4975039;28;20058;-64
2021/12/06 00:27:47;;;;;;;31.38;14.18;;;;;;;2.67;83.42;98540.31;4975559;28;20054;-64
2021/12/06 00:30:20;;;;;;;27.13;13.48;;;;;;;2.62;83.38;98536.88;4973822;28;20046;-72
2021/12/06 00:32:50;;;;;;;30.20;14.55;;;;;;;2.64;83.80;98525.16;4974864;28;20051;-64
2021/12/06 00:35:22;;;;;;;32.40;14.47;;;;;;;2.63;83.04;98523.47;4975188;28;20519;-65
2021/12/06 00:37:58;;;;;;;32.00;14.07;;;;;;;2.64;83.63;98520.09;4973721;28;20051;-65
2021/12/06 00:40:34;;;;;;;27.65;14.52;;;;;;;2.66;82.88;98538.59;4973624;28;20039;-65
2021/12/06 00:43:07;;;;;;;32.70;14.73;;;;;;;2.68;83.02;98547.03;4973666;28;20053;-65
2021/12/06 00:45:40;;;;;;;25.75;13.38;;;;;;;2.61;83.32;98549.47;4974784;28;20109;-65
2021/12/06 00:48:13;;;;;;;28.08;13.85;;;;;;;2.67;83.08;98554.56;4974795;28;20066;-64
2021/12/06 00:50:44;;;;;;;29.20;13.45;;;;;;;2.60;83.45;98562.88;4974671;28;20050;-63
2021/12/06 00:53:18;;;;;;;28.88;13.85;;;;;;;2.48;83.77;98568.59;4974636;28;20047;-64
2021/12/06 00:55:48;;;;;;;26.00;12.90;;;;;;;2.59;83.58;98572.09;4975025;28;20050;-64
2021/12/06 00:58:17;;;;;;;;;;;;;;;2.56;83.08;98562.00;4977918;28;20058;-64
2021/12/06 01:00:50;;;;;;;25.70;12.55;;;;;;;2.56;83.32;98563.66;4978668;28;19922;-64
2021/12/06 01:03:23;;;;;;;28.60;14.32;;;;;;;2.61;83.29;98569.59;4978701;28;20054;-65
2021/12/06 01:05:53;;;;;;;29.38;14.88;;;;;;;2.65;83.70;98564.63;4978901;28;20572;-64
2021/12/06 01:08:25;;;;;;;32.33;14.20;;;;;;;2.62;83.66;98567.09;4978583;28;20050;-65
2021/12/06 01:10:55;;;;;;;32.53;14.32;;;;;;;2.65;83.07;98572.19;4978473;28;20047;-65
2021/12/06 01:13:30;;;;;;;30.65;13.50;;;;;;;2.66;83.29;98566.31;4978591;28;20043;-63
2021/12/06 01:16:06;;;;;;;28.90;14.27;;;;;;;2.76;83.32;98571.47;4977579;28;20043;-63
2021/12/06 01:18:39;;;;;;;33.70;14.13;;;;;;;2.82;83.15;98579.94;4977234;28;20078;-63
2021/12/06 01:21:19;;;;;;;30.27;14.07;;;;;;;2.85;83.75;98574.09;4977815;28;20066;-64
2021/12/06 01:23:57;;;;;;;35.00;14.23;;;;;;;2.80;83.25;98576.56;4978335;28;20051;-65
2021/12/06 01:26:44;;;;;;;27.02;12.52;;;;;;;2.72;83.59;98576.47;4978237;28;20105;-64
2021/12/06 01:32:16;;;;;;;29.58;13.88;;;;;;;2.59;83.29;98592.22;4968376;28;20047;-63
2021/12/06 01:40:20;;;;;;;29.20;13.32;;;;;;;2.64;83.39;98597.31;4976808;28;20043;-63
2021/12/06 01:43:18;;;;;;;29.08;12.50;;;;;;;2.60;83.62;98604.00;4977910;28;20493;-63
2021/12/06 01:45:47;;;;;;;27.27;12.55;;;;;;;2.48;83.60;98597.97;4977872;28;20101;-63
2021/12/06 01:48:17;;;;;;;26.90;14.13;;;;;;;2.27;83.34;98603.56;4976741;28;20046;-63
2021/12/06 01:50:46;;;;;;;;;;;;;;;2.08;83.25;98599.06;4978473;28;20035;-63
2021/12/06 01:53:19;;;;;;;32.60;14.13;;;;;;;2.00;84.15;98598.09;4977915;28;20017;-63
2021/12/06 01:55:50;;;;;;;27.25;12.38;;;;;;;2.07;84.14;98594.84;4978010;28;20464;-63
2021/12/06 01:58:22;;;;;;;28.85;13.57;;;;;;;2.21;84.13;98583.31;4978259;28;20043;-63
2021/12/06 02:00:54;;;;;;;28.17;14.07;;;;;;;2.36;84.26;98578.50;4976518;28;20121;-63
2021/12/06 02:03:31;;;;;;;29.63;13.93;;;;;;;2.44;84.53;98571.91;4977538;28;20057;-63
2021/12/06 02:06:05;;;;;;;30.83;13.00;;;;;;;2.39;84.13;98573.50;4977523;28;20086;-63
2021/12/06 02:12:09;;;;;;;27.70;13.80;;;;;;;2.43;84.41;98580.28;4844331;29;20036;-64
2021/12/06 02:14:51;;;;;;;29.42;12.73;;;;;;;2.49;84.25;98579.53;4845281;29;20191;-64
2021/12/06 02:17:24;;;;;;;24.42;12.27;;;;;;;2.47;84.33;98579.47;4845429;29;20415;-64
2021/12/06 02:20:00;;;;;;;31.08;13.48;;;;;;;2.24;83.87;98583.38;4845186;29;20141;-64
2021/12/06 02:22:40;;;;;;;28.30;13.07;;;;;;;2.17;84.22;98575.69;4844840;29;20077;-64
2021/12/06 02:25:16;;;;;;;27.90;14.02;;;;;;;2.20;84.56;98580.78;4859379;29;20050;-64
2021/12/06 02:27:52;;;;;;;29.42;13.85;;;;;;;2.13;84.07;98582.38;4844789;29;20056;-64
2021/12/06 02:30:23;;;;;;;27.83;12.95;;;;;;;2.22;84.14;98574.94;4845369;29;20068;-64
2021/12/06 02:32:56;;;;;;;31.10;13.65;;;;;;;2.28;84.28;98569.16;4845170;29;20437;-64
2021/12/06 02:35:29;;;;;;;28.90;13.43;;;;;;;2.32;84.80;98565.84;4845005;29;20054;-64
2021/12/06 02:38:08;;;;;;;23.13;11.93;;;;;;;2.31;84.55;98570.03;4844922;29;20106;-64
2021/12/06 02:40:42;;;;;;;27.67;13.15;;;;;;;2.26;84.22;98564.09;4844893;29;20046;-64
2021/12/06 02:43:15;;;;;;;30.17;14.68;;;;;;;2.24;84.34;98560.72;4844791;29;20050;-64
2021/12/06 02:45:45;;;;;;;30.08;13.27;;;;;;;2.24;83.83;98557.34;4845084;29;20058;-64
2021/12/06 02:48:17;;;;;;;28.05;13.00;;;;;;;2.29;83.83;98555.75;4844937;29;20038;-64
2021/12/06 02:50:50;;;;;;;27.63;12.70;;;;;;;2.36;84.34;98558.38;4845037;29;20058;-64
2021/12/06 02:53:24;;;;;;;25.08;13.27;;;;;;;2.36;84.50;98558.38;4844801;29;20483;-64
2021/12/06 02:55:59;;;;;;;28.77;13.38;;;;;;;2.34;84.46;98555.00;4859127;29;20140;-65
2021/12/06 02:58:55;;;;;;;28.13;13.65;;;;;;;2.37;84.13;98544.13;4844859;29;20445;-65
2021/12/06 03:01:32;;;;;;;27.60;13.50;;;;;;;2.44;83.98;98544.22;4844803;29;20058;-65
2021/12/06 03:04:07;;;;;;;25.73;12.82;;;;;;;2.51;84.04;98543.47;4844354;29;20133;-64
2021/12/06 03:06:41;;;;;;;28.95;13.70;;;;;;;2.52;83.93;98535.06;4844436;29;20141;-64
2021/12/06 03:09:16;;;;;;;29.92;15.15;;;;;;;2.51;84.43;98533.41;4844354;29;20114;-64
2021/12/06 03:11:52;;;;;;;32.90;13.95;;;;;;;2.50;83.94;98526.66;4880181;29;20411;-64
2021/12/06 03:14:27;;;;;;;29.00;12.40;;;;;;;2.49;83.77;98540.09;4881172;29;20051;-64
2021/12/06 03:17:07;;;;;;;24.73;12.27;;;;;;;2.42;84.00;98538.31;4895641;29;20085;-64
2021/12/06 03:19:38;;;;;;;25.80;12.98;;;;;;;2.35;83.69;98556.66;4881042;29;20089;-64
2021/12/06 03:22:14;;;;;;;30.08;13.90;;;;;;;2.29;84.38;98554.06;4895540;29;20049;-64
2021/12/06 03:24:48;;;;;;;29.27;14.23;;;;;;;2.20;84.04;98556.47;4881069;29;20049;-64
2021/12/06 03:27:20;;;;;;;29.27;12.73;;;;;;;2.18;84.37;98563.16;4881357;29;20510;-64
2021/12/06 03:29:53;;;;;;;28.08;14.15;;;;;;;2.35;84.35;98574.28;4881285;29;20075;-65
2021/12/06 03:32:22;;;;;;;33.75;14.07;;;;;;;2.36;84.25;98575.13;4880929;29;20060;-65
2021/12/06 03:34:55;;;;;;;32.00;14.13;;;;;;;2.28;84.08;98580.06;4880758;29;20082;-64
2021/12/06 03:37:28;;;;;;;35.25;15.10;;;;;;;2.26;84.18;98580.84;4880854;29;20053;-64
2021/12/06 03:39:59;;;;;;;29.17;14.07;;;;;;;2.30;84.62;98583.47;4880870;29;20049;-64
2021/12/06 03:42:30;;;;;;;32.17;14.07;;;;;;;2.38;84.60;98581.88;4880929;29;20048;-64
2021/12/06 03:45:06;;;;;;;32.22;13.90;;;;;;;2.42;84.27;98588.66;4880671;29;20051;-64
2021/12/06 03:47:38;;;;;;;25.58;13.07;;;;;;;2.43;83.80;98580.28;4880723;29;20076;-65
2021/12/06 03:50:13;;;;;;;30.60;14.05;;;;;;;2.50;84.58;98577.00;4880942;29;20460;-65
2021/12/06 03:52:45;;;;;;;27.42;13.55;;;;;;;2.52;84.50;98580.38;4880575;29;20048;-65
2021/12/06 03:55:17;;;;;;;25.00;12.20;;;;;;;2.52;84.46;98592.97;4880425;29;20060;-64
2021/12/06 03:57:50;;;;;;;32.70;14.35;;;;;;;2.41;83.62;98601.22;4880530;29;20496;-65
2021/12/06 04:00:21;;;;;;;31.23;13.52;;;;;;;2.39;84.40;98601.22;4880473;29;20053;-65
2021/12/06 04:02:56;;;;;;;31.35;14.40;;;;;;;2.50;83.61;98594.63;4880732;29;20447;-65
2021/12/06 04:05:30;;;;;;;27.80;13.30;;;;;;;2.48;84.37;98598.81;4895036;29;20051;-64
2021/12/06 04:08:03;;;;;;;27.58;13.68;;;;;;;2.39;84.04;98603.72;4880693;29;20053;-64
2021/12/06 04:10:34;;;;;;;27.08;12.18;;;;;;;2.40;83.62;98604.56;4880147;29;20116;-64
2021/12/06 04:13:08;;;;;;;31.52;13.55;;;;;;;2.40;83.73;98602.88;4880504;29;20080;-64
2021/12/06 04:15:42;;;;;;;27.42;12.63;;;;;;;2.43;84.42;98595.38;4880133;29;20487;-64
2021/12/06 04:18:15;;;;;;;25.92;12.32;;;;;;;2.44;83.73;98602.13;4880473;29;20143;-64
2021/12/06 04:20:48;;;;;;;26.38;12.07;;;;;;;2.45;84.31;98602.94;4894528;29;20063;-64
2021/12/06 04:23:18;;;;;;;25.85;12.73;;;;;;;2.36;84.22;98593.59;4558952;23;20138;-63
2021/12/06 04:25:50;;;;;;;26.70;12.07;;;;;;;2.37;84.18;98600.34;4955652;29;20068;-64
2021/12/06 04:28:28;;;;;;;28.02;13.00;;;;;;;2.39;84.07;98606.25;4954197;29;20043;-64
2021/12/06 04:31:02;;;;;;;26.30;13.55;;;;;;;2.36;84.62;98601.16;4955573;29;20048;-63
2021/12/06 04:33:36;;;;;;;31.48;13.95;;;;;;;2.32;83.80;98606.97;4954740;29;20493;-63
2021/12/06 04:36:09;;;;;;;27.58;12.35;;;;;;;2.35;84.91;98612.03;4955288;28;20102;-63
2021/12/06 04:38:39;;;;;;;26.45;13.27;;;;;;;2.43;84.36;98615.53;4955626;29;20055;-64
2021/12/06 04:41:09;;;;;;;;;;;;;;;2.48;83.84;98626.50;4956237;28;20043;-63
2021/12/06 04:43:39;;;;;;;24.73;12.38;;;;;;;2.49;84.17;98630.72;4955260;28;19923;-65
2021/12/06 04:46:11;;;;;;;25.00;11.48;;;;;;;2.50;83.88;98619.81;4955289;28;20039;-64
2021/12/06 04:48:51;;;;;;;31.98;13.73;;;;;;;2.46;83.79;98625.66;4955354;28;20404;-63
2021/12/06 04:51:23;;;;;;;34.38;13.75;;;;;;;2.52;83.77;98635.78;4953996;29;20039;-63
2021/12/06 04:53:53;;;;;;;31.35;13.75;;;;;;;2.46;84.20;98645.78;4955459;28;20130;-63
2021/12/06 04:56:29;;;;;;;28.33;13.45;;;;;;;2.38;83.94;98641.44;4955594;28;20043;-64
2021/12/06 04:59:04;;;;;;;29.95;14.18;;;;;;;2.16;83.61;98637.75;4953847;29;20137;-63
2021/12/06 05:01:35;;;;;;;30.40;13.30;;;;;;;2.13;84.56;98625.16;4955067;29;20050;-63
2021/12/06 05:04:12;;;;;;;26.98;13.93;;;;;;;2.22;84.76;98629.47;4955423;28;20386;-63
2021/12/06 05:06:49;;;;;;;28.38;13.52;;;;;;;2.28;84.67;98637.94;4955263;28;20504;-63
2021/12/06 05:09:30;;;;;;;28.08;14.02;;;;;;;2.31;84.71;98632.09;4955607;28;20138;-63
2021/12/06 05:12:10;;;;;;;27.38;12.32;;;;;;;2.39;84.22;98628.91;4953731;29;20047;-64
2021/12/06 05:14:43;;;;;;;24.88;12.25;;;;;;;2.38;84.57;98619.63;4955210;29;20055;-64
2021/12/06 05:17:14;;;;;;;30.33;13.55;;;;;;;2.39;84.22;98620.50;4955204;28;20130;-64
2021/12/06 05:19:49;;;;;;;29.92;13.20;;;;;;;2.30;84.87;98613.66;4954366;29;20485;-63
2021/12/06 05:22:25;;;;;;;25.58;12.45;;;;;;;2.38;84.24;98631.38;4954990;29;20110;-63
2021/12/06 05:24:55;;;;;;;29.27;13.35;;;;;;;2.42;84.79;98634.00;4954044;29;20044;-63
2021/12/06 05:27:30;;;;;;;28.52;13.32;;;;;;;2.50;84.68;98629.88;4954864;28;20047;-64
2021/12/06 05:30:04;;;;;;;29.35;14.55;;;;;;;2.49;84.59;98633.25;4955487;28;20485;-63
2021/12/06 05:32:36;;;;;;;26.55;12.85;;;;;;;2.46;84.44;98628.16;4954964;28;20401;-64
2021/12/06 05:35:10;;;;;;;25.42;12.95;;;;;;;2.52;84.63;98635.78;4954913;28;20378;-63
2021/12/06 05:37:45;;;;;;;27.27;12.27;;;;;;;2.61;84.13;98638.44;4955007;28;20051;-63
2021/12/06 05:40:16;;;;;;;22.35;11.27;;;;;;;2.67;84.44;98633.47;4955021;28;20071;-63
2021/12/06 05:42:48;;;;;;;20.40;9.48;;;;;;;2.68;84.31;98636.84;4955554;28;20465;-63
2021/12/06 05:45:20;;;;;;;26.10;12.57;;;;;;;2.67;84.50;98636.00;4958262;29;20051;-63
2021/12/06 05:47:53;;;;;;;27.83;12.30;;;;;;;2.66;84.74;98644.38;4958502;29;20043;-63
2021/12/06 05:50:27;;;;;;;30.15;14.57;;;;;;;2.75;84.68;98647.84;4958471;28;20058;-64
2021/12/06 05:52:57;;;;;;;31.33;13.80;;;;;;;2.84;84.67;98660.56;4958107;28;20047;-65
2021/12/06 05:55:28;;;;;;;27.48;12.18;;;;;;;2.85;84.57;98664.78;4958392;28;20478;-63
2021/12/06 05:58:02;;;;;;;25.42;11.80;;;;;;;2.76;84.84;98669.72;4957997;28;20047;-64
2021/12/06 06:00:35;;;;;;;22.98;11.20;;;;;;;2.73;84.98;98665.47;4958630;28;20405;-64
2021/12/06 06:03:06;;;;;;;21.60;9.32;;;;;;;2.80;85.26;98676.47;4958273;28;20058;-64
2021/12/06 06:05:37;;;;;;;16.85;7.05;;;;;;;2.86;84.57;98677.38;4964529;28;20074;-64
2021/12/06 06:08:08;;;;;;;11.27;5.18;;;;;;;2.93;85.28;98680.88;4976758;28;20484;-64
2021/12/06 06:10:37;;;;;;;6.85;3.25;;;;;;;2.97;84.69;98685.09;4977250;28;20061;-63
2021/12/06 06:13:09;;;;;;;7.13;3.55;;;;;;;3.00;85.19;98685.97;4977557;28;20479;-63
2021/12/06 06:15:41;;;;;;;7.25;4.00;;;;;;;3.03;85.00;98680.13;4977224;28;20138;-63
2021/12/06 06:18:16;;;;;;;9.30;3.95;;;;;;;3.08;85.23;98683.56;4977590;28;20539;-63
2021/12/06 06:20:48;;;;;;;8.23;3.90;;;;;;;3.09;85.02;98685.25;4977253;28;20053;-63
2021/12/06 06:23:26;;;;;;;7.32;3.83;;;;;;;3.12;84.67;98685.31;4976388;28;20050;-63
2021/12/06 06:25:57;;;;;;;8.43;4.68;;;;;;;3.13;84.34;98676.91;4977036;28;20126;-63
2021/12/06 06:28:28;;;;;;;6.82;4.10;;;;;;;3.16;84.83;98687.03;4976886;28;20065;-64
2021/12/06 06:30:57;;;;;;;7.82;4.25;;;;;;;3.17;84.41;98693.75;4976208;28;20059;-63
2021/12/06 06:33:26;;;;;;;7.85;3.90;;;;;;;3.18;84.63;98692.94;4976902;28;20050;-63
2021/12/06 06:35:57;;;;;;;7.38;4.25;;;;;;;3.26;84.61;98688.84;4977330;28;20496;-63
2021/12/06 06:38:30;;;;;;;6.90;4.38;;;;;;;3.28;84.87;98689.69;4977172;28;20050;-63
2021/12/06 06:41:00;;;;;;;10.38;4.20;;;;;;;3.24;84.62;98690.47;4976931;28;20134;-63
2021/12/06 06:43:31;;;;;;;7.80;4.20;;;;;;;3.31;83.92;98704.88;4975574;28;20476;-64
2021/12/06 06:46:01;;;;;;;9.80;4.75;;;;;;;3.33;84.60;98710.78;4976986;28;20085;-64
2021/12/06 06:48:31;;;;;;;;;;;;;;;3.35;84.11;98709.97;4977333;28;20436;-64
2021/12/06 06:51:03;;;;;;;7.13;3.72;;;;;;;3.41;84.21;98719.25;4976899;28;20281;-65
2021/12/06 06:53:33;;;;;;;9.15;4.45;;;;;;;3.43;83.65;98717.63;4975047;28;20047;-64
2021/12/06 06:56:03;;;;;;;5.93;3.63;;;;;;;3.40;83.39;98722.63;4974652;28;20505;-64
2021/12/06 06:58:34;;;;;;;8.30;4.40;;;;;;;3.41;84.17;98724.31;4972132;28;20089;-65
2021/12/06 07:01:07;;;;;;;7.95;4.40;;;;;;;3.42;83.85;98720.97;4976367;28;20051;-64
2021/12/06 07:03:36;;;;;;;8.02;4.50;;;;;;;3.47;83.31;98728.56;4975223;28;20051;-64
2021/12/06 07:06:06;;;;;;;7.25;3.55;;;;;;;3.44;83.27;98729.38;4976337;28;20054;-64
2021/12/06 07:08:36;;;;;;;7.35;3.92;;;;;;;3.40;82.99;98727.66;4976545;28;20045;-64
2021/12/06 07:11:06;;;;;;;7.63;3.50;;;;;;;3.42;83.12;98736.09;4976318;28;20055;-64
2021/12/06 07:13:40;;;;;;;7.88;3.72;;;;;;;3.49;83.23;98745.44;4976155;28;20057;-64
2021/12/06 07:16:10;;;;;;;6.13;3.25;;;;;;;3.48;83.38;98733.63;4976087;28;20078;-64
2021/12/06 07:18:43;;;;;;;5.78;3.50;;;;;;;3.51;82.87;98736.19;4976106;28;20061;-64
2021/12/06 07:21:14;;;;;;;9.23;4.93;;;;;;;3.49;82.93;98737.84;4976383;28;20106;-63
2021/12/06 07:23:44;;;;;;;6.32;3.22;;;;;;;3.58;82.71;98742.16;4973664;28;20054;-64
2021/12/06 07:26:17;;;;;;;6.30;3.42;;;;;;;3.56;82.71;98739.63;4974618;28;20049;-64
2021/12/06 07:28:54;;;;;;;6.93;3.83;;;;;;;3.55;83.05;98748.00;4974915;28;20034;-64
2021/12/06 07:31:25;;;;;;;6.22;3.15;;;;;;;3.58;82.64;98737.97;4975220;28;20050;-65
2021/12/06 07:33:54;;;;;;;8.82;4.40;;;;;;;3.55;82.88;98744.66;4976155;28;20125;-64
2021/12/06 07:36:30;;;;;;;6.43;3.38;;;;;;;3.57;82.30;98741.34;4976048;28;20043;-63
2021/12/06 07:38:59;;;;;;;6.03;3.60;;;;;;;3.61;82.95;98750.63;4975845;28;20408;-65
2021/12/06 07:41:29;;;;;;;5.15;3.15;;;;;;;3.59;82.56;98762.38;4974765;28;20059;-63
2021/12/06 07:44:04;;;;;;;6.20;3.53;;;;;;;3.56;81.96;98762.31;4974633;28;20074;-63
2021/12/06 07:46:34;;;;;;;6.53;3.47;;;;;;;3.58;81.81;98765.72;4973792;28;20042;-63
2021/12/06 07:49:04;;;;;;;6.60;3.80;;;;;;;3.70;81.84;98768.38;4974470;28;20050;-63
2021/12/06 07:51:33;;;;;;;5.75;3.30;;;;;;;3.76;81.55;98762.56;4974787;28;20133;-64
2021/12/06 07:54:03;;;;;;;7.35;4.47;;;;;;;3.76;81.33;98768.47;4974462;28;20098;-64
2021/12/06 07:56:32;;;;;;;5.60;3.60;;;;;;;3.72;81.30;98764.19;4974411;28;20190;-65
2021/12/06 07:59:04;;;;;;;5.88;3.55;;;;;;;3.68;80.98;98752.38;4974864;28;20047;-63
2021/12/06 08:01:33;;;;;;;6.25;3.58;;;;;;;3.77;81.02;98769.28;4975714;28;20050;-64
2021/12/06 08:04:04;;;;;;;5.38;3.42;;;;;;;3.80;81.79;98765.13;4973605;28;20051;-64
2021/12/06 08:06:34;;;;;;;6.22;3.78;;;;;;;3.83;81.56;98765.16;4973171;28;20412;-64
2021/12/06 08:09:04;;;;;;;7.18;3.53;;;;;;;3.82;80.61;98766.00;4973919;28;20039;-64
2021/12/06 08:11:37;;;;;;;7.22;4.25;;;;;;;3.81;80.70;98766.00;4974257;28;20078;-64
2021/12/06 08:14:08;;;;;;;7.38;4.30;;;;;;;3.86;80.67;98769.41;4974219;28;20082;-63
2021/12/06 08:16:42;;;;;;;9.43;4.97;;;;;;;3.89;80.89;98777.00;4974148;28;20054;-63
2021/12/06 08:19:14;;;;;;;7.10;3.60;;;;;;;3.98;80.63;98784.69;4974603;28;20055;-63
2021/12/06 08:21:43;;;;;;;5.82;3.72;;;;;;;3.99;80.21;98787.22;4975341;28;20045;-63
2021/12/06 08:24:16;;;;;;;7.15;4.18;;;;;;;4.04;79.68;98795.69;4973901;28;20059;-63
2021/12/06 08:26:47;;;;;;;6.57;3.40;;;;;;;4.11;79.67;98795.72;4973943;28;20043;-63
2021/12/06 08:29:19;;;;;;;7.88;4.10;;;;;;;4.15;79.91;98797.47;4974015;28;20074;-63
2021/12/06 08:31:48;;;;;;;10.25;4.03;;;;;;;4.11;79.43;98800.78;4970785;28;20459;-63
2021/12/06 08:34:18;;;;;;;6.97;4.15;;;;;;;4.15;79.35;98802.53;4973457;28;20039;-65
2021/12/06 08:36:53;;;;;;;8.02;4.00;;;;;;;4.15;79.17;98802.53;4935984;29;20055;-63
2021/12/06 08:39:26;;;;;;;4.78;2.53;;;;;;;4.16;78.83;98804.22;4936051;29;20123;-63
2021/12/06 08:41:57;;;;;;;5.70;3.47;;;;;;;4.16;78.68;98804.22;4936137;29;20521;-63
2021/12/06 08:44:30;;;;;;;7.15;3.55;;;;;;;4.20;77.95;98800.91;4936402;28;20054;-63
2021/12/06 08:46:59;;;;;;;7.10;3.75;;;;;;;4.19;78.17;98809.28;4936382;29;20047;-63
2021/12/06 08:49:33;;;;;;;6.13;3.33;;;;;;;4.23;78.33;98800.91;4936193;29;20047;-64
2021/12/06 08:52:03;;;;;;;5.75;3.60;;;;;;;4.30;78.32;98805.19;4936437;29;20051;-66
2021/12/06 08:54:32;;;;;;;6.45;4.35;;;;;;;4.34;78.02;98806.94;4936394;29;20405;-65
2021/12/06 08:57:04;;;;;;;4.80;2.88;;;;;;;4.34;77.79;98812.84;4947490;28;20054;-66
2021/12/06 08:59:35;;;;;;;8.00;3.83;;;;;;;4.35;78.18;98818.72;4937076;28;20054;-67
2021/12/06 09:02:06;;;;;;;6.43;3.30;;;;;;;4.39;78.21;98818.75;4973431;28;20046;-66
2021/12/06 09:04:59;;;;;;;6.32;3.50;;;;;;;4.40;77.54;98825.50;4974338;28;20034;-64
2021/12/06 09:07:29;;;;;;;5.55;3.03;;;;;;;4.28;77.08;98827.91;4974377;28;20103;-65
2021/12/06 09:09:59;;;;;;;6.18;3.70;;;;;;;4.29;77.32;98827.09;4974289;28;20093;-64
2021/12/06 09:12:29;;;;;;;;;;;;;;;4.31;77.62;98835.53;4974695;28;20126;-64
2021/12/06 09:15:03;;;;;;;5.13;2.95;;;;;;;4.29;77.45;98831.28;4974711;28;20439;-64
2021/12/06 09:17:36;;;;;;;5.60;3.80;;;;;;;4.25;76.80;98829.59;4974462;28;20042;-64
2021/12/06 09:20:11;;;;;;;4.72;2.80;;;;;;;4.29;77.05;98831.28;4978170;28;20055;-67
2021/12/06 09:22:42;;;;;;;5.25;2.85;;;;;;;4.36;76.83;98836.44;4977537;28;20101;-66
2021/12/06 09:25:12;;;;;;;5.70;3.00;;;;;;;4.33;76.47;98843.09;4978021;28;20101;-65
2021/12/06 09:27:45;;;;;;;7.90;3.65;;;;;;;4.38;76.49;98841.47;4978140;28;20061;-65
2021/12/06 09:30:21;;;;;;;6.53;2.50;;;;;;;4.37;76.72;98844.81;4961161;28;20441;-65
2021/12/06 09:32:57;;;;;;;6.97;2.72;;;;;;;4.42;76.26;98838.16;4977742;28;20051;-66
2021/12/06 09:35:36;;;;;;;5.13;3.40;;;;;;;4.43;76.29;98843.22;4977962;28;20526;-66
2021/12/06 09:38:07;;;;;;;4.85;2.70;;;;;;;4.36;75.78;98838.94;4978142;28;20484;-66
2021/12/06 09:40:39;;;;;;;4.10;2.30;;;;;;;4.43;75.98;98844.91;4977083;28;20046;-65
2021/12/06 09:43:14;;;;;;;6.05;2.97;;;;;;;4.45;75.77;98828.09;4977909;28;20051;-67
2021/12/06 09:45:48;;;;;;;5.72;2.65;;;;;;;4.48;75.95;98830.66;4977847;28;20066;-67
2021/12/06 09:48:20;;;;;;;5.25;2.78;;;;;;;4.56;75.83;98834.06;4977416;28;20046;-65
2021/12/06 09:50:52;;;;;;;5.97;3.10;;;;;;;4.61;75.49;98837.47;4978101;28;20149;-65
2021/12/06 09:53:24;;;;;;;6.65;3.10;;;;;;;4.75;75.76;98828.38;4977601;28;20054;-66
2021/12/06 09:56:01;;;;;;;5.25;2.58;;;;;;;4.77;75.45;98826.69;4977640;28;20050;-65
2021/12/06 09:58:31;;;;;;;5.45;3.00;;;;;;;4.78;75.09;98830.06;4977319;28;20051;-67
2021/12/06 10:01:04;;;;;;;;;;;;;;;4.80;75.13;98829.22;4977935;28;20058;-66
2021/12/06 10:03:34;;;;;;;5.93;2.38;;;;;;;4.81;75.40;98820.81;4977506;28;20005;-65
2021/12/06 10:06:06;;;;;;;6.40;3.38;;;;;;;4.90;74.90;98825.94;4977553;28;20049;-65
2021/12/06 10:08:44;;;;;;;4.97;3.03;;;;;;;5.02;74.58;98822.66;4977490;28;20098;-66
2021/12/06 10:11:15;;;;;;;5.97;3.00;;;;;;;5.10;74.56;98814.31;4977708;28;20054;-67
2021/12/06 10:13:49;;;;;;;6.88;3.65;;;;;;;5.18;74.38;98825.31;4960396;28;20050;-67
2021/12/06 10:16:24;;;;;;;7.85;3.60;;;;;;;5.25;73.94;98827.06;4977772;28;20101;-66
2021/12/06 10:18:54;;;;;;;5.00;2.90;;;;;;;5.19;73.57;98821.97;4976102;28;20184;-67
2021/12/06 10:21:27;;;;;;;5.60;2.90;;;;;;;5.11;73.06;98818.53;4976784;28;20050;-64
2021/12/06 10:23:58;;;;;;;6.05;2.70;;;;;;;5.14;73.57;98823.59;4976768;28;20551;-65
2021/12/06 10:26:32;;;;;;;6.07;2.67;;;;;;;5.30;73.63;98819.50;4976838;28;20516;-65
2021/12/06 10:29:05;;;;;;;5.28;2.47;;;;;;;5.39;73.87;98820.41;4976786;28;20051;-65
2021/12/06 10:31:44;;;;;;;5.50;2.85;;;;;;;5.32;73.12;98826.28;4976920;28;20061;-65
2021/12/06 10:34:17;;;;;;;3.85;2.10;;;;;;;5.37;72.88;98817.00;4976846;28;20090;-67
2021/12/06 10:36:47;;;;;;;6.00;2.80;;;;;;;5.51;72.58;98829.75;4975621;28;20074;-63
2021/12/06 10:39:17;;;;;;;5.63;3.22;;;;;;;5.62;72.61;98827.25;4976740;28;20047;-65
2021/12/06 10:41:49;;;;;;;;;;;;;;;5.62;72.11;98822.19;4977054;28;20053;-65
2021/12/06 10:44:19;;;;;;;4.90;2.80;;;;;;;5.56;71.71;98817.13;4977015;28;19945;-64
2021/12/06 10:46:53;;;;;;;5.97;2.85;;;;;;;5.68;71.26;98817.19;4976807;28;20473;-65
2021/12/06 10:49:25;;;;;;;6.30;2.72;;;;;;;5.80;71.07;98813.03;4976669;28;20043;-65
2021/12/06 10:51:57;;;;;;;5.28;2.88;;;;;;;5.84;70.33;98811.34;4977043;28;20054;-65
2021/12/06 10:54:35;;;;;;;8.40;2.83;;;;;;;5.91;70.45;98805.47;4976893;28;20126;-66
2021/12/06 10:57:08;;;;;;;5.60;2.72;;;;;;;6.12;69.83;98805.53;4977206;28;20047;-66
2021/12/06 10:59:39;;;;;;;5.50;3.08;;;;;;;6.04;69.41;98802.16;4975310;28;20049;-66
2021/12/06 11:02:13;;;;;;;5.07;2.83;;;;;;;6.09;69.72;98798.78;4976498;28;20078;-64
2021/12/06 11:04:47;;;;;;;8.40;3.25;;;;;;;6.09;69.07;98808.09;4976588;28;20395;-66
2021/12/06 11:07:20;;;;;;;6.25;3.58;;;;;;;6.22;69.02;98801.34;4975053;28;20056;-66
2021/12/06 11:09:54;;;;;;;6.47;3.03;;;;;;;6.33;68.46;98814.91;4976299;28;20051;-64
2021/12/06 11:12:24;;;;;;;8.07;3.45;;;;;;;6.44;68.16;98814.06;4976135;28;20054;-66
2021/12/06 11:14:53;;;;;;;8.45;3.65;;;;;;;6.58;68.10;98817.47;4976080;28;20068;-64
2021/12/06 11:17:24;;;;;;;;;;;;;;;6.68;67.75;98813.25;4976801;28;20070;-64
2021/12/06 11:19:54;;;;;;;8.90;3.42;;;;;;;6.82;67.29;98815.78;4975902;28;20024;-64
2021/12/06 11:22:25;;;;;;;8.60;3.60;;;;;;;6.86;66.38;98803.13;4976223;28;20382;-66
2021/12/06 11:24:56;;;;;;;7.78;3.55;;;;;;;6.84;66.89;98809.03;4975684;28;20058;-63
2021/12/06 11:27:27;;;;;;;8.60;4.30;;;;;;;6.82;66.00;98803.97;4976015;28;20042;-64
2021/12/06 11:30:00;;;;;;;8.13;4.80;;;;;;;6.75;65.81;98815.78;4975910;28;20047;-65
2021/12/06 11:32:37;;;;;;;10.07;4.65;;;;;;;6.74;65.58;98819.16;4975815;28;20053;-66
2021/12/06 11:35:11;;;;;;;9.30;4.70;;;;;;;6.72;65.46;98815.78;4976692;28;20057;-65
2021/12/06 11:37:45;;;;;;;9.80;4.60;;;;;;;6.87;65.67;98819.16;4975636;28;20097;-65
2021/12/06 11:40:21;;;;;;;12.50;5.22;;;;;;;7.01;65.02;98822.53;4975988;28;20051;-65
2021/12/06 11:42:56;;;;;;;10.52;5.40;;;;;;;6.89;65.10;98822.53;4975585;28;20054;-65
2021/12/06 11:45:35;;;;;;;9.40;5.13;;;;;;;6.77;65.07;98828.47;4975877;28;20408;-65
2021/12/06 11:48:09;;;;;;;11.15;6.07;;;;;;;6.72;64.68;98825.94;4976008;28;20069;-64
2021/12/06 11:50:43;;;;;;;9.10;4.97;;;;;;;6.49;63.75;98826.75;4975655;28;20563;-65
2021/12/06 11:53:12;;;;;;;12.70;5.72;;;;;;;6.57;64.26;98831.00;4975574;28;20050;-65
2021/12/06 11:55:47;;;;;;;10.05;4.90;;;;;;;6.65;63.76;98821.69;4975850;28;20098;-65
2021/12/06 11:58:28;;;;;;;11.07;5.57;;;;;;;6.71;63.89;98824.25;4975299;28;20086;-66
2021/12/06 12:01:10;;;;;;;9.77;5.25;;;;;;;6.73;63.60;98817.50;4974536;28;20051;-64
2021/12/06 12:03:43;;;;;;;9.07;5.30;;;;;;;6.78;63.58;98824.25;4975366;28;20058;-65
2021/12/06 12:06:26;;;;;;;10.88;6.25;;;;;;;6.93;64.01;98839.47;4975611;28;20452;-65
2021/12/06 12:09:05;;;;;;;12.45;6.60;;;;;;;7.07;63.54;98837.78;4974337;28;20057;-65
2021/12/06 12:12:03;;;;;;;12.32;5.80;;;;;;;7.20;62.38;98840.28;4974101;28;20047;-65
2021/12/06 12:14:38;;;;;;;11.30;5.35;;;;;;;7.23;61.71;98849.59;4975457;28;20562;-64
2021/12/06 12:17:13;;;;;;;9.95;5.80;;;;;;;7.41;61.41;98854.66;4975411;28;20053;-64